createdAt,value
2022-11-05T00:02:27.701Z,100456.47
2022-11-05T00:05:13.047Z,100463.84
2022-11-05T00:08:00.254Z,100472.03
2022-11-05T00:10:30.321Z,100473.81
2022-11-05T00:13:17.947Z,100471.25
2022-11-05T00:16:03.305Z,100479.31
2022-11-05T00:18:31.058Z,100487.56
2022-11-05T00:20:58.867Z,100480.53
2022-11-05T00:23:44.263Z,100483.56
2022-11-05T00:26:13.073Z,100482.63
2022-11-05T00:28:43.854Z,100485.66
2022-11-05T00:31:13.679Z,100492.13
2022-11-05T00:33:42.877Z,100488.03
2022-11-05T00:36:11.818Z,100493.34
2022-11-05T00:38:39.552Z,100493.38
2022-11-05T00:41:07.876Z,100499.50
2022-11-05T00:43:53.216Z,100495.50
2022-11-05T00:46:23.315Z,100507.50
2022-11-05T00:49:08.682Z,100504.53
2022-11-05T00:51:36.418Z,100509.47
2022-11-05T00:54:04.680Z,100503.50
2022-11-05T00:56:32.429Z,100501.28
2022-11-05T00:59:00.145Z,100512.91
2022-11-05T01:01:29.911Z,100510.16
2022-11-05T01:03:57.729Z,100513.84
2022-11-05T01:06:25.435Z,100515.03
2022-11-05T01:08:53.174Z,100532.19
2022-11-05T01:11:33.952Z,100529.13
2022-11-05T01:14:02.272Z,100530.84
2022-11-05T01:16:31.491Z,100534.59
2022-11-05T01:18:59.233Z,100534.06
2022-11-05T01:21:27.001Z,100535.81
2022-11-05T01:23:54.985Z,100534.03
2022-11-05T01:26:22.721Z,100534.34
2022-11-05T01:28:51.931Z,100533.91
2022-11-05T01:31:19.632Z,100532.66
2022-11-05T01:33:49.022Z,100532.34
2022-11-05T01:36:16.820Z,100537.13
2022-11-05T01:38:44.554Z,100539.56
2022-11-05T01:41:12.512Z,100537.97
2022-11-05T01:43:49.162Z,100551.03
2022-11-05T01:46:19.591Z,100550.25
2022-11-05T01:48:50.004Z,100549.88
2022-11-05T01:51:19.862Z,100545.94
2022-11-05T01:53:50.010Z,100548.44
2022-11-05T01:56:19.842Z,100545.47
2022-11-05T01:58:50.037Z,100551.09
2022-11-05T02:01:18.415Z,100550.13
2022-11-05T02:03:48.228Z,100551.41
2022-11-05T02:06:17.612Z,100560.56
2022-11-05T02:08:52.873Z,100564.59
2022-11-05T02:11:21.026Z,100568.41
2022-11-05T02:13:49.665Z,100569.16
2022-11-05T02:16:28.441Z,100582.75
2022-11-05T02:19:00.966Z,100580.59
2022-11-05T02:21:57.273Z,100582.88
2022-11-05T02:25:00.590Z,100585.94
2022-11-05T02:27:57.616Z,100587.53
2022-11-05T02:30:36.625Z,100590.19
2022-11-05T02:33:24.448Z,100590.13
2022-11-05T02:36:03.376Z,100602.00
2022-11-05T02:38:38.881Z,100594.53
2022-11-05T02:41:11.469Z,100601.97
2022-11-05T02:43:48.190Z,100602.03
2022-11-05T02:46:26.756Z,100613.66
2022-11-05T02:48:59.335Z,100609.34
2022-11-05T02:51:32.593Z,100613.50
2022-11-05T02:54:06.088Z,100616.16
2022-11-05T02:56:35.109Z,100618.13
2022-11-05T02:59:03.338Z,100632.00
2022-11-05T03:01:32.467Z,100621.78
2022-11-05T03:04:01.838Z,100618.56
2022-11-05T03:06:56.149Z,100625.38
2022-11-05T03:10:01.796Z,100633.75
2022-11-05T03:12:34.676Z,100634.41
2022-11-05T03:15:10.431Z,100634.97
2022-11-05T03:17:45.728Z,100637.00
2022-11-05T03:20:19.899Z,100640.53
2022-11-05T03:22:52.246Z,100648.91
2022-11-05T03:25:22.950Z,100647.84
2022-11-05T03:27:54.038Z,100655.34
2022-11-05T03:30:22.027Z,100644.03
2022-11-05T03:32:53.329Z,100654.38
2022-11-05T03:35:24.114Z,100659.00
2022-11-05T03:37:55.593Z,100652.31
2022-11-05T03:40:24.804Z,100664.13
2022-11-05T03:42:57.786Z,100665.28
2022-11-05T03:45:28.027Z,100661.38
2022-11-05T03:47:59.100Z,100670.91
2022-11-05T03:50:35.895Z,100678.19
2022-11-05T03:53:15.076Z,100683.09
2022-11-05T03:55:48.768Z,100687.50
2022-11-05T03:58:16.866Z,100683.13
2022-11-05T04:00:44.524Z,100689.09
2022-11-05T04:03:13.858Z,100686.47
2022-11-05T04:05:41.829Z,100694.41
2022-11-05T04:08:27.867Z,100699.88
2022-11-05T04:11:13.031Z,100706.78
2022-11-05T04:13:40.860Z,100708.56
2022-11-05T04:16:26.546Z,100702.13
2022-11-05T04:18:55.784Z,100708.69
2022-11-05T04:21:37.394Z,100715.28
2022-11-05T04:24:11.744Z,100717.94
2022-11-05T04:26:40.998Z,100713.00
2022-11-05T04:29:26.556Z,100711.16
2022-11-05T04:31:54.347Z,100723.28
2022-11-05T04:34:23.441Z,100722.81
2022-11-05T04:36:52.015Z,100731.88
2022-11-05T04:39:20.650Z,100735.94
2022-11-05T04:41:49.038Z,100735.63
2022-11-05T04:44:17.144Z,100739.88
2022-11-05T04:46:44.960Z,100732.66
2022-11-05T04:49:12.690Z,100743.38
2022-11-05T04:51:41.750Z,100736.81
2022-11-05T04:54:09.457Z,100735.53
2022-11-05T04:56:37.180Z,100736.06
2022-11-05T04:59:04.894Z,100728.22
2022-11-05T05:01:32.724Z,100740.88
2022-11-05T05:04:00.548Z,100736.16
2022-11-05T05:06:28.534Z,100738.28
2022-11-05T05:08:57.746Z,100740.09
2022-11-05T05:11:25.492Z,100737.88
2022-11-05T05:13:53.210Z,100742.00
2022-11-05T05:16:22.310Z,100739.19
2022-11-05T05:18:50.294Z,100741.31
2022-11-05T05:21:36.945Z,100733.09
2022-11-05T05:24:08.585Z,100737.19
2022-11-05T05:26:36.881Z,100740.09
2022-11-05T05:29:05.218Z,100743.00
2022-11-05T05:31:33.213Z,100749.91
2022-11-05T05:34:00.910Z,100756.00
2022-11-05T05:36:28.798Z,100770.97
2022-11-05T05:38:56.532Z,100770.31
2022-11-05T05:41:25.949Z,100784.91
2022-11-05T05:43:53.689Z,100788.78
2022-11-05T05:46:21.364Z,100792.81
2022-11-05T05:48:50.188Z,100804.84
2022-11-05T05:51:18.376Z,100794.44
2022-11-05T05:53:46.372Z,100806.09
2022-11-05T05:56:19.117Z,100805.03
2022-11-05T05:58:48.467Z,100806.03
2022-11-05T06:01:19.359Z,100808.81
2022-11-05T06:03:48.198Z,100811.53
2022-11-05T06:06:20.894Z,100815.34
2022-11-05T06:08:48.849Z,100812.63
2022-11-05T06:11:16.783Z,100825.56
2022-11-05T06:13:44.533Z,100816.75
2022-11-05T06:16:13.581Z,100828.19
2022-11-05T06:18:41.392Z,100828.81
2022-11-05T06:21:10.659Z,100839.06
2022-11-05T06:23:39.510Z,100842.59
2022-11-05T06:26:09.258Z,100846.84
2022-11-05T06:28:37.020Z,100848.31
2022-11-05T06:31:04.960Z,100863.53
2022-11-05T06:33:33.997Z,100854.03
2022-11-05T06:36:02.516Z,100864.47
2022-11-05T06:38:33.280Z,100870.56
2022-11-05T06:41:04.568Z,100869.44
2022-11-05T06:43:35.108Z,100877.81
2022-11-05T06:46:03.670Z,100881.47
2022-11-05T06:48:31.401Z,100876.88
2022-11-05T06:51:00.612Z,100875.72
2022-11-05T06:53:30.538Z,100880.69
2022-11-05T06:55:58.387Z,100892.16
2022-11-05T06:58:26.766Z,100897.41
2022-11-05T07:00:54.785Z,100898.66
2022-11-05T07:03:22.873Z,100906.88
2022-11-05T07:05:51.092Z,100911.81
2022-11-05T07:08:20.298Z,100902.63
2022-11-05T07:10:47.999Z,100906.72
2022-11-05T07:13:16.280Z,100912.44
2022-11-05T07:15:45.523Z,100909.88
2022-11-05T07:18:13.359Z,100920.25
2022-11-05T07:20:41.070Z,100915.72
2022-11-05T07:23:12.258Z,100923.72
2022-11-05T07:25:42.375Z,100925.88
2022-11-05T07:28:10.539Z,100930.00
2022-11-05T07:30:38.434Z,100929.53
2022-11-05T07:33:06.198Z,100928.84
2022-11-05T07:35:34.190Z,100927.34
2022-11-05T07:38:01.923Z,100934.53
2022-11-05T07:40:30.480Z,100937.84
2022-11-05T07:43:01.945Z,100940.75
2022-11-05T07:45:31.416Z,100938.28
2022-11-05T07:48:00.504Z,100945.03
2022-11-05T07:50:31.397Z,100942.56
2022-11-05T07:53:02.267Z,100941.81
2022-11-05T07:55:30.607Z,100950.44
2022-11-05T07:57:59.971Z,100943.44
2022-11-05T08:00:28.595Z,100945.69
2022-11-05T08:03:07.303Z,100951.50
2022-11-05T08:05:37.555Z,100951.66
2022-11-05T08:08:06.154Z,100956.22
2022-11-05T08:10:34.039Z,100964.34
2022-11-05T08:13:03.379Z,100962.38
2022-11-05T08:15:31.585Z,100970.28
2022-11-05T08:17:59.667Z,100969.63
2022-11-05T08:20:27.374Z,100966.31
2022-11-05T08:22:56.087Z,100971.06
2022-11-05T08:25:24.536Z,100983.47
2022-11-05T08:27:56.928Z,100984.13
2022-11-05T08:30:26.454Z,100997.59
2022-11-05T08:32:57.581Z,100991.81
2022-11-05T08:35:25.485Z,101004.94
2022-11-05T08:37:57.368Z,100999.66
2022-11-05T08:40:25.807Z,100998.66
2022-11-05T08:42:54.074Z,100995.16
2022-11-05T08:45:21.770Z,100997.75
2022-11-05T08:47:50.876Z,100998.66
2022-11-05T08:50:18.813Z,101005.03
2022-11-05T08:52:46.567Z,101002.50
2022-11-05T08:55:14.267Z,101010.50
2022-11-05T08:57:41.970Z,101012.22
2022-11-05T09:00:11.287Z,101009.88
2022-11-05T09:02:39.127Z,101007.22
2022-11-05T09:05:09.230Z,101019.56
2022-11-05T09:07:36.923Z,101021.06
2022-11-05T09:10:05.021Z,101022.59
2022-11-05T09:12:32.762Z,101016.31
2022-11-05T09:15:03.797Z,101027.59
2022-11-05T09:17:31.563Z,101027.34
2022-11-05T09:19:59.275Z,101035.66
2022-11-05T09:22:28.315Z,101042.72
2022-11-05T09:24:56.032Z,101037.88
2022-11-05T09:27:23.741Z,101042.34
2022-11-05T09:29:51.450Z,101031.91
2022-11-05T09:32:20.917Z,101041.69
2022-11-05T09:34:49.009Z,101037.97
2022-11-05T09:37:16.763Z,101045.94
2022-11-05T09:39:45.879Z,101052.69
2022-11-05T09:42:16.743Z,101049.41
2022-11-05T09:44:47.575Z,101054.44
2022-11-05T09:47:18.345Z,101056.34
2022-11-05T09:49:50.073Z,101053.59
2022-11-05T09:52:21.971Z,101053.47
2022-11-05T09:54:51.505Z,101056.44
2022-11-05T09:57:23.336Z,101056.75
2022-11-05T09:59:53.301Z,101065.41
2022-11-05T10:02:24.474Z,101050.31
2022-11-05T10:04:57.113Z,101063.59
2022-11-05T10:07:28.051Z,101068.91
2022-11-05T10:10:00.521Z,101064.91
2022-11-05T10:12:31.734Z,101061.94
2022-11-05T10:15:08.507Z,101066.09
2022-11-05T10:17:39.195Z,101069.97
2022-11-05T10:20:11.662Z,101076.66
2022-11-05T10:22:39.785Z,101073.72
2022-11-05T10:25:18.113Z,101080.22
2022-11-05T10:27:49.147Z,101079.50
2022-11-05T10:30:17.102Z,101078.78
2022-11-05T10:32:45.965Z,101089.69
2022-11-05T10:35:18.387Z,101091.63
2022-11-05T10:37:47.472Z,101083.91
2022-11-05T10:40:21.074Z,101090.94
2022-11-05T10:42:55.531Z,101083.13
2022-11-05T10:45:29.770Z,101091.69
2022-11-05T10:48:06.750Z,101094.91
2022-11-05T10:50:34.916Z,101107.44
2022-11-05T10:53:07.832Z,101114.78
2022-11-05T10:55:38.761Z,101104.25
2022-11-05T10:58:11.933Z,101112.31
2022-11-05T11:00:39.780Z,101110.50
2022-11-05T11:03:33.297Z,101111.66
2022-11-05T11:06:02.872Z,101103.75
2022-11-05T11:08:31.971Z,101109.78
2022-11-05T11:11:04.176Z,101111.91
2022-11-05T11:13:49.805Z,101108.31
2022-11-05T11:16:21.332Z,101108.00
2022-11-05T11:18:54.323Z,101104.75
2022-11-05T11:21:26.140Z,101109.00
2022-11-05T11:23:58.228Z,101104.63
2022-11-05T11:26:29.922Z,101109.09
2022-11-05T11:29:00.581Z,101102.53
2022-11-05T11:31:30.440Z,101099.66
2022-11-05T11:34:01.796Z,101109.16
2022-11-05T11:36:34.705Z,101102.53
2022-11-05T11:39:04.282Z,101109.63
2022-11-05T11:41:36.095Z,101102.72
2022-11-05T11:44:07.790Z,101105.53
2022-11-05T11:46:36.494Z,101114.59
2022-11-05T11:49:05.266Z,101112.47
2022-11-05T11:51:36.681Z,101106.06
2022-11-05T11:54:05.399Z,101115.00
2022-11-05T11:56:44.619Z,101123.59
2022-11-05T11:59:30.814Z,101113.97
2022-11-05T12:02:45.071Z,101111.13
2022-11-05T12:05:24.835Z,101114.84
2022-11-05T12:07:54.418Z,101109.91
2022-11-05T12:10:35.020Z,101118.84
2022-11-05T12:13:33.515Z,101105.81
2022-11-05T12:16:08.699Z,101113.97
2022-11-05T12:18:42.354Z,101105.91
2022-11-05T12:21:29.484Z,101100.19
2022-11-05T12:24:37.698Z,101109.16
2022-11-05T12:27:17.202Z,101113.41
2022-11-05T12:29:56.557Z,101110.94
2022-11-05T12:32:38.496Z,101106.59
2022-11-05T12:35:15.260Z,101112.69
2022-11-05T12:37:50.033Z,101111.47
2022-11-05T12:40:38.165Z,101117.09
2022-11-05T12:43:15.744Z,101117.03
2022-11-05T12:45:48.455Z,101116.31
2022-11-05T12:48:43.125Z,101113.03
2022-11-05T12:51:20.705Z,101113.91
2022-11-05T12:53:59.946Z,101119.69
2022-11-05T12:56:33.355Z,101120.81
2022-11-05T12:59:04.436Z,101112.44
2022-11-05T13:01:34.989Z,101108.06
2022-11-05T13:04:08.799Z,101103.81
2022-11-05T13:06:40.284Z,101112.59
2022-11-05T13:09:12.195Z,101120.53
2022-11-05T13:11:44.568Z,101119.19
2022-11-05T13:14:16.130Z,101121.97
2022-11-05T13:16:46.331Z,101114.25
2022-11-05T13:19:22.748Z,101113.38
2022-11-05T13:21:54.283Z,101114.41
2022-11-05T13:24:24.897Z,101118.63
2022-11-05T13:26:55.116Z,101120.91
2022-11-05T13:29:29.062Z,101131.94
2022-11-05T13:31:59.942Z,101144.97
2022-11-05T13:34:33.427Z,101140.16
2022-11-05T13:37:23.834Z,101140.34
2022-11-05T13:39:54.499Z,101145.91
2022-11-05T13:42:52.641Z,101158.72
2022-11-05T13:45:38.134Z,101162.34
2022-11-05T13:48:30.782Z,101164.63
2022-11-05T13:51:13.221Z,101150.88
2022-11-05T13:53:56.725Z,101153.72
2022-11-05T13:56:39.005Z,101145.34
2022-11-05T13:59:38.208Z,101152.78
2022-11-05T14:02:14.928Z,101149.34
2022-11-05T14:04:47.371Z,101147.75
2022-11-05T14:07:21.252Z,101149.81
2022-11-05T14:09:54.752Z,101157.50
2022-11-05T14:12:26.679Z,101153.22
2022-11-05T14:15:01.760Z,101157.53
2022-11-05T14:17:33.869Z,101156.06
2022-11-05T14:20:55.535Z,101155.81
2022-11-05T14:23:51.741Z,101152.16
2022-11-05T14:26:23.127Z,101163.25
2022-11-05T14:29:09.894Z,101156.31
2022-11-05T14:34:46.988Z,101156.97
2022-11-05T14:37:26.508Z,101164.66
2022-11-05T14:39:56.794Z,101158.63
2022-11-05T14:42:27.773Z,101157.44
2022-11-05T14:45:11.151Z,101160.78
2022-11-05T14:47:41.514Z,101173.16
2022-11-05T14:50:12.899Z,101179.16
2022-11-05T14:52:41.678Z,101182.03
2022-11-05T14:55:26.624Z,101186.56
2022-11-05T14:58:28.695Z,101186.16
2022-11-05T15:00:57.094Z,101182.13
2022-11-05T15:03:41.126Z,101189.19
2022-11-05T15:06:25.241Z,101192.41
2022-11-05T15:08:58.833Z,101184.47
2022-11-05T15:11:33.461Z,101195.16
2022-11-05T15:14:05.955Z,101195.03
2022-11-05T15:16:36.879Z,101194.38
2022-11-05T15:19:06.429Z,101194.97
2022-11-05T15:21:35.713Z,101196.69
2022-11-05T15:24:04.259Z,101199.66
2022-11-05T15:26:39.546Z,101197.59
2022-11-05T15:29:17.163Z,101203.53
2022-11-05T15:31:45.417Z,101206.22
2022-11-05T15:34:21.847Z,101195.53
2022-11-05T15:36:55.434Z,101198.63
2022-11-05T15:39:31.057Z,101203.31
2022-11-05T15:42:04.491Z,101205.28
2022-11-05T15:44:34.694Z,101204.97
2022-11-05T15:47:12.791Z,101207.00
2022-11-05T15:49:40.655Z,101209.59
2022-11-05T15:52:10.924Z,101203.09
2022-11-05T15:54:38.975Z,101213.50
2022-11-05T15:57:18.655Z,101213.22
2022-11-05T15:59:47.457Z,101194.72
2022-11-05T16:02:26.655Z,101203.31
2022-11-05T16:04:54.473Z,101207.16
2022-11-05T16:07:22.360Z,101214.88
2022-11-05T16:09:55.089Z,101219.94
2022-11-05T16:12:29.008Z,101213.31
2022-11-05T16:15:20.955Z,101214.25
2022-11-05T16:17:52.952Z,101216.97
2022-11-05T16:20:32.024Z,101216.53
2022-11-05T16:23:01.818Z,101214.13
2022-11-05T16:25:38.926Z,101213.16
2022-11-05T16:28:21.312Z,101221.34
2022-11-05T16:30:56.799Z,101221.94
2022-11-05T16:33:25.226Z,101224.56
2022-11-05T16:35:53.124Z,101217.91
2022-11-05T16:38:21.266Z,101225.03
2022-11-05T16:40:49.006Z,101226.88
2022-11-05T16:43:21.558Z,101229.56
2022-11-05T16:45:49.787Z,101234.41
2022-11-05T16:48:17.535Z,101242.50
2022-11-05T16:50:46.178Z,101243.88
2022-11-05T16:53:13.934Z,101254.34
2022-11-05T16:55:43.258Z,101246.09
2022-11-05T16:58:18.477Z,101246.78
2022-11-05T17:00:48.169Z,101248.34
2022-11-05T17:03:15.934Z,101247.13
2022-11-05T17:05:44.099Z,101256.31
2022-11-05T17:08:12.195Z,101270.44
2022-11-05T17:10:40.253Z,101273.63
2022-11-05T17:13:08.080Z,101273.22
2022-11-05T17:15:35.964Z,101269.03
2022-11-05T17:18:06.118Z,101277.09
2022-11-05T17:20:40.809Z,101281.09
2022-11-05T17:23:10.290Z,101284.50
2022-11-05T17:25:38.938Z,101277.53
2022-11-05T17:28:06.895Z,101287.63
2022-11-05T17:30:34.760Z,101289.19
2022-11-05T17:33:02.568Z,101300.38
2022-11-05T17:35:31.933Z,101302.03
2022-11-05T17:37:59.665Z,101297.28
2022-11-05T17:40:28.730Z,101301.75
2022-11-05T17:42:56.478Z,101303.50
2022-11-05T17:45:24.177Z,101304.47
2022-11-05T17:47:51.973Z,101301.84
2022-11-05T17:50:19.743Z,101299.69
2022-11-05T17:52:48.861Z,101308.16
2022-11-05T17:55:19.287Z,101305.63
2022-11-05T17:57:48.382Z,101304.25
2022-11-05T18:00:17.188Z,101306.38
2022-11-05T18:02:46.084Z,101311.22
2022-11-05T18:05:14.327Z,101318.16
2022-11-05T18:07:42.494Z,101321.91
2022-11-05T18:10:11.715Z,101311.59
2022-11-05T18:12:39.844Z,101311.91
2022-11-05T18:15:08.413Z,101316.09
2022-11-05T18:17:36.716Z,101316.53
2022-11-05T18:20:04.899Z,101315.81
2022-11-05T18:22:32.666Z,101321.38
2022-11-05T18:25:00.404Z,101321.50
2022-11-05T18:27:29.762Z,101308.47
2022-11-05T18:29:57.435Z,101302.13
2022-11-05T18:32:25.469Z,101312.16
2022-11-05T18:34:53.204Z,101303.09
2022-11-05T18:37:21.146Z,101306.72
2022-11-05T18:39:51.555Z,101304.94
2022-11-05T18:42:19.522Z,101304.94
2022-11-05T18:44:49.417Z,101302.56
2022-11-05T18:47:17.217Z,101307.50
2022-11-05T18:49:44.928Z,101296.63
2022-11-05T18:52:13.137Z,101301.53
2022-11-05T18:54:40.939Z,101303.97
2022-11-05T18:57:08.650Z,101307.72
2022-11-05T18:59:39.168Z,101308.25
2022-11-05T19:02:09.429Z,101314.47
2022-11-05T19:04:37.817Z,101312.22
2022-11-05T19:07:06.046Z,101306.72
2022-11-05T19:09:34.123Z,101314.31
2022-11-05T19:12:01.978Z,101317.50
2022-11-05T19:14:30.659Z,101318.53
2022-11-05T19:16:58.489Z,101317.91
2022-11-05T19:19:27.689Z,101310.56
2022-11-05T19:21:55.456Z,101314.94
2022-11-05T19:24:23.228Z,101320.34
2022-11-05T19:26:50.916Z,101321.88
2022-11-05T19:29:18.840Z,101320.66
2022-11-05T19:31:46.626Z,101322.09
2022-11-05T19:34:14.766Z,101323.66
2022-11-05T19:36:44.153Z,101326.75
2022-11-05T19:39:14.278Z,101322.28
2022-11-05T19:41:42.179Z,101317.81
2022-11-05T19:44:10.211Z,101326.09
2022-11-05T19:46:38.510Z,101325.09
2022-11-05T19:49:06.301Z,101326.66
2022-11-05T19:51:34.274Z,101330.50
2022-11-05T19:54:04.675Z,101335.00
2022-11-05T19:56:34.053Z,101336.97
2022-11-05T19:59:03.080Z,101328.69
2022-11-05T20:01:31.499Z,101323.53
2022-11-05T20:04:00.198Z,101319.66
2022-11-05T20:06:32.232Z,101326.59
2022-11-05T20:11:53.706Z,101320.09
2022-11-05T20:14:21.562Z,101323.78
2022-11-05T20:16:49.687Z,101326.72
2022-11-05T20:19:19.633Z,101329.50
2022-11-05T20:21:47.567Z,101331.81
2022-11-05T20:24:24.088Z,101329.91
2022-11-05T20:26:53.886Z,101326.28
2022-11-05T20:29:22.227Z,101331.00
2022-11-05T20:31:50.345Z,101342.72
2022-11-05T20:34:18.063Z,101341.63
2022-11-05T20:36:45.777Z,101348.91
2022-11-05T20:39:13.498Z,101352.53
2022-11-05T20:41:42.654Z,101352.19
2022-11-05T20:44:10.802Z,101346.97
2022-11-05T20:46:38.630Z,101353.13
2022-11-05T20:49:06.462Z,101358.28
2022-11-05T20:51:34.154Z,101361.44
2022-11-05T20:54:02.971Z,101358.19
2022-11-05T20:56:32.596Z,101358.06
2022-11-05T20:59:02.664Z,101354.44
2022-11-05T21:01:32.601Z,101355.34
2022-11-05T21:04:00.631Z,101351.22
2022-11-05T21:06:28.934Z,101353.97
2022-11-05T21:08:58.622Z,101354.78
2022-11-05T21:11:29.402Z,101351.75
2022-11-05T21:13:57.143Z,101357.38
2022-11-05T21:16:26.233Z,101348.97
2022-11-05T21:18:53.919Z,101349.34
2022-11-05T21:21:21.873Z,101360.38
2022-11-05T21:23:49.583Z,101364.78
2022-11-05T21:26:18.613Z,101366.53
2022-11-05T21:28:46.589Z,101374.69
2022-11-05T21:31:14.376Z,101372.22
2022-11-05T21:33:43.466Z,101371.13
2022-11-05T21:36:13.313Z,101372.09
2022-11-05T21:38:41.540Z,101374.13
2022-11-05T21:41:11.213Z,101370.94
2022-11-05T21:43:39.414Z,101365.75
2022-11-05T21:46:07.169Z,101353.03
2022-11-05T21:48:34.923Z,101358.38
2022-11-05T21:51:21.999Z,101341.81
2022-11-05T21:54:03.732Z,101347.53
2022-11-05T21:56:49.266Z,101354.78
2022-11-05T21:59:36.214Z,101352.66
2022-11-05T22:02:04.554Z,101349.66
2022-11-05T22:04:34.867Z,101349.41
2022-11-05T22:07:04.589Z,101350.34
2022-11-05T22:09:33.147Z,101345.66
2022-11-05T22:12:01.816Z,101347.31
2022-11-05T22:14:30.037Z,101342.94
2022-11-05T22:16:58.254Z,101347.91
2022-11-05T22:19:26.377Z,101347.75
2022-11-05T22:21:54.184Z,101350.53
2022-11-05T22:24:23.671Z,101344.31
2022-11-05T22:26:51.625Z,101347.75
2022-11-05T22:29:19.382Z,101344.13
2022-11-05T22:31:47.076Z,101347.94
2022-11-05T22:34:14.821Z,101347.09
2022-11-05T22:36:42.572Z,101352.47
2022-11-05T22:39:11.088Z,101349.16
2022-11-05T22:41:40.565Z,101351.66
2022-11-05T22:44:08.286Z,101348.59
2022-11-05T22:46:36.015Z,101341.59
2022-11-05T22:49:04.151Z,101350.28
2022-11-05T22:51:33.980Z,101352.66
2022-11-05T22:54:01.959Z,101338.69
2022-11-05T22:56:31.303Z,101347.25
2022-11-05T22:59:00.840Z,101344.88
2022-11-05T23:01:28.858Z,101355.88
2022-11-05T23:03:58.579Z,101358.75
2022-11-05T23:06:45.548Z,101366.00
2022-11-05T23:09:35.016Z,101356.09
2022-11-05T23:12:04.463Z,101352.72
2022-11-05T23:14:33.725Z,101353.44
2022-11-05T23:17:19.148Z,101359.25
2022-11-05T23:20:04.772Z,101353.56
2022-11-05T23:22:50.612Z,101349.47
2022-11-05T23:25:20.579Z,101346.56
2022-11-05T23:27:49.658Z,101345.00
2022-11-05T23:30:20.113Z,101342.69
2022-11-05T23:32:46.931Z,101340.03
2022-11-05T23:35:14.846Z,101348.91
2022-11-05T23:37:59.941Z,101339.16
2022-11-05T23:40:29.547Z,101340.38
2022-11-05T23:43:14.686Z,101349.56
2022-11-05T23:46:03.332Z,101338.91
2022-11-05T23:48:32.797Z,101342.09
2022-11-05T23:51:03.025Z,101343.66
2022-11-05T23:53:32.148Z,101340.97
2022-11-05T23:56:02.236Z,101334.06
2022-11-05T23:58:30.140Z,101338.72
